sensor_id;sensor_type;location;lat;lon;timestamp;P1;durP1;ratioP1;P2;durP2;ratioP2
10884;SDS011;5495;53.252;10.390;2022-08-11T00:01:16;5.17;;;2.10;;
10884;SDS011;5495;53.252;10.390;2022-08-11T00:03:47;4.37;;;2.07;;
10884;SDS011;5495;53.252;10.390;2022-08-11T00:06:22;5.77;;;1.90;;
10884;SDS011;5495;53.252;10.390;2022-08-11T00:08:54;3.60;;;1.70;;
10884;SDS011;5495;53.252;10.390;2022-08-11T00:11:27;3.43;;;2.00;;
10884;SDS011;5495;53.252;10.390;2022-08-11T00:13:59;3.20;;;2.10;;
10884;SDS011;5495;53.252;10.390;2022-08-11T00:16:28;2.57;;;1.97;;
10884;SDS011;5495;53.252;10.390;2022-08-11T00:18:57;2.93;;;1.93;;
10884;SDS011;5495;53.252;10.390;2022-08-11T00:21:27;3.10;;;2.00;;
10884;SDS011;5495;53.252;10.390;2022-08-11T00:23:58;3.03;;;1.97;;
10884;SDS011;5495;53.252;10.390;2022-08-11T00:26:28;3.37;;;2.20;;
10884;SDS011;5495;53.252;10.390;2022-08-11T00:28:56;3.60;;;2.17;;
10884;SDS011;5495;53.252;10.390;2022-08-11T00:31:34;3.97;;;2.23;;
10884;SDS011;5495;53.252;10.390;2022-08-11T00:34:07;3.37;;;2.27;;
10884;SDS011;5495;53.252;10.390;2022-08-11T00:36:38;4.57;;;1.97;;
10884;SDS011;5495;53.252;10.390;2022-08-11T00:39:12;4.23;;;1.87;;
10884;SDS011;5495;53.252;10.390;2022-08-11T00:44:35;3.57;;;1.90;;
10884;SDS011;5495;53.252;10.390;2022-08-11T00:47:13;3.07;;;2.00;;
10884;SDS011;5495;53.252;10.390;2022-08-11T00:49:57;2.50;;;2.10;;
10884;SDS011;5495;53.252;10.390;2022-08-11T00:52:46;4.33;;;2.27;;
10884;SDS011;5495;53.252;10.390;2022-08-11T01:01:33;5.50;;;1.93;;
10884;SDS011;5495;53.252;10.390;2022-08-11T01:10:26;3.63;;;2.50;;
10884;SDS011;5495;53.252;10.390;2022-08-11T01:13:17;4.50;;;2.30;;
10884;SDS011;5495;53.252;10.390;2022-08-11T01:16:13;5.70;;;2.20;;
10884;SDS011;5495;53.252;10.390;2022-08-11T01:25:46;3.37;;;1.97;;
10884;SDS011;5495;53.252;10.390;2022-08-11T01:31:43;6.40;;;2.50;;
10884;SDS011;5495;53.252;10.390;2022-08-11T01:41:10;6.70;;;2.37;;
10884;SDS011;5495;53.252;10.390;2022-08-11T01:44:20;3.80;;;2.27;;
10884;SDS011;5495;53.252;10.390;2022-08-11T01:47:16;2.83;;;2.50;;
10884;SDS011;5495;53.252;10.390;2022-08-11T01:50:13;5.30;;;2.47;;
10884;SDS011;5495;53.252;10.390;2022-08-11T01:52:52;3.87;;;2.10;;
10884;SDS011;5495;53.252;10.390;2022-08-11T01:55:31;3.70;;;2.27;;
10884;SDS011;5495;53.252;10.390;2022-08-11T01:58:07;4.30;;;2.67;;
10884;SDS011;5495;53.252;10.390;2022-08-11T02:00:53;3.70;;;2.73;;
10884;SDS011;5495;53.252;10.390;2022-08-11T02:03:33;5.27;;;2.40;;
10884;SDS011;5495;53.252;10.390;2022-08-11T02:06:12;4.07;;;2.40;;
10884;SDS011;5495;53.252;10.390;2022-08-11T02:09:03;5.20;;;2.63;;
10884;SDS011;5495;53.252;10.390;2022-08-11T02:11:39;4.10;;;2.33;;
10884;SDS011;5495;53.252;10.390;2022-08-11T02:14:11;3.33;;;2.17;;
10884;SDS011;5495;53.252;10.390;2022-08-11T02:19:42;4.53;;;2.40;;
10884;SDS011;5495;53.252;10.390;2022-08-11T02:22:35;5.60;;;2.37;;
10884;SDS011;5495;53.252;10.390;2022-08-11T02:25:30;3.10;;;2.23;;
10884;SDS011;5495;53.252;10.390;2022-08-11T02:28:04;2.83;;;2.50;;
10884;SDS011;5495;53.252;10.390;2022-08-11T02:30:37;5.53;;;2.30;;
10884;SDS011;5495;53.252;10.390;2022-08-11T02:33:41;4.47;;;2.27;;
10884;SDS011;5495;53.252;10.390;2022-08-11T02:36:10;5.13;;;2.40;;
10884;SDS011;5495;53.252;10.390;2022-08-11T02:38:47;5.70;;;2.90;;
10884;SDS011;5495;53.252;10.390;2022-08-11T02:41:23;6.30;;;2.33;;
10884;SDS011;5495;53.252;10.390;2022-08-11T02:44:20;3.93;;;2.40;;
10884;SDS011;5495;53.252;10.390;2022-08-11T02:47:00;6.93;;;2.50;;
10884;SDS011;5495;53.252;10.390;2022-08-11T02:49:38;5.33;;;2.67;;
10884;SDS011;5495;53.252;10.390;2022-08-11T02:52:22;3.40;;;2.43;;
10884;SDS011;5495;53.252;10.390;2022-08-11T02:55:04;5.83;;;2.57;;
10884;SDS011;5495;53.252;10.390;2022-08-11T02:57:48;3.87;;;2.37;;
10884;SDS011;5495;53.252;10.390;2022-08-11T03:00:20;4.57;;;2.60;;
10884;SDS011;5495;53.252;10.390;2022-08-11T03:02:59;4.43;;;2.67;;
10884;SDS011;5495;53.252;10.390;2022-08-11T03:08:39;3.73;;;2.47;;
10884;SDS011;5495;53.252;10.390;2022-08-11T03:11:20;4.03;;;2.53;;
10884;SDS011;5495;53.252;10.390;2022-08-11T03:14:16;3.30;;;2.20;;
10884;SDS011;5495;53.252;10.390;2022-08-11T03:17:09;5.53;;;2.60;;
10884;SDS011;5495;53.252;10.390;2022-08-11T03:19:50;3.27;;;2.67;;
10884;SDS011;5495;53.252;10.390;2022-08-11T03:22:28;4.27;;;3.07;;
10884;SDS011;5495;53.252;10.390;2022-08-11T03:25:04;2.80;;;2.50;;
10884;SDS011;5495;53.252;10.390;2022-08-11T03:27:47;3.60;;;2.50;;
10884;SDS011;5495;53.252;10.390;2022-08-11T03:30:20;3.87;;;2.40;;
10884;SDS011;5495;53.252;10.390;2022-08-11T03:32:57;5.50;;;2.60;;
10884;SDS011;5495;53.252;10.390;2022-08-11T03:35:53;4.17;;;2.53;;
10884;SDS011;5495;53.252;10.390;2022-08-11T03:38:31;3.57;;;2.53;;
10884;SDS011;5495;53.252;10.390;2022-08-11T03:41:16;3.53;;;2.77;;
10884;SDS011;5495;53.252;10.390;2022-08-11T03:44:09;4.20;;;2.80;;
10884;SDS011;5495;53.252;10.390;2022-08-11T03:47:00;3.83;;;2.80;;
10884;SDS011;5495;53.252;10.390;2022-08-11T03:50:00;8.77;;;2.50;;
10884;SDS011;5495;53.252;10.390;2022-08-11T03:52:37;3.50;;;2.43;;
10884;SDS011;5495;53.252;10.390;2022-08-11T03:55:16;4.27;;;2.73;;
10884;SDS011;5495;53.252;10.390;2022-08-11T04:07:24;4.90;;;2.40;;
10884;SDS011;5495;53.252;10.390;2022-08-11T04:16:50;5.43;;;2.63;;
10884;SDS011;5495;53.252;10.390;2022-08-11T04:25:58;4.03;;;2.83;;
10884;SDS011;5495;53.252;10.390;2022-08-11T04:31:37;4.13;;;2.90;;
10884;SDS011;5495;53.252;10.390;2022-08-11T04:37:16;3.33;;;2.70;;
10884;SDS011;5495;53.252;10.390;2022-08-11T04:40:11;3.57;;;2.70;;
10884;SDS011;5495;53.252;10.390;2022-08-11T04:46:00;5.63;;;3.10;;
10884;SDS011;5495;53.252;10.390;2022-08-11T04:48:56;3.00;;;2.70;;
10884;SDS011;5495;53.252;10.390;2022-08-11T04:52:15;3.27;;;2.60;;
10884;SDS011;5495;53.252;10.390;2022-08-11T04:55:38;4.87;;;2.80;;
10884;SDS011;5495;53.252;10.390;2022-08-11T04:58:37;8.07;;;2.70;;
10884;SDS011;5495;53.252;10.390;2022-08-11T05:01:38;4.17;;;2.80;;
10884;SDS011;5495;53.252;10.390;2022-08-11T05:04:26;3.10;;;2.33;;
10884;SDS011;5495;53.252;10.390;2022-08-11T05:10:47;3.33;;;2.67;;
10884;SDS011;5495;53.252;10.390;2022-08-11T05:13:26;8.63;;;2.83;;
10884;SDS011;5495;53.252;10.390;2022-08-11T05:16:12;7.30;;;2.47;;
10884;SDS011;5495;53.252;10.390;2022-08-11T05:19:02;7.50;;;2.80;;
10884;SDS011;5495;53.252;10.390;2022-08-11T05:21:50;3.70;;;2.83;;
10884;SDS011;5495;53.252;10.390;2022-08-11T05:24:42;5.13;;;2.77;;
10884;SDS011;5495;53.252;10.390;2022-08-11T05:27:31;7.70;;;3.00;;
10884;SDS011;5495;53.252;10.390;2022-08-11T05:30:20;6.37;;;3.03;;
10884;SDS011;5495;53.252;10.390;2022-08-11T05:33:11;5.37;;;3.03;;
10884;SDS011;5495;53.252;10.390;2022-08-11T05:36:06;3.53;;;3.17;;
10884;SDS011;5495;53.252;10.390;2022-08-11T05:38:38;5.03;;;3.30;;
10884;SDS011;5495;53.252;10.390;2022-08-11T05:41:33;3.70;;;2.53;;
10884;SDS011;5495;53.252;10.390;2022-08-11T05:44:19;4.57;;;2.50;;
10884;SDS011;5495;53.252;10.390;2022-08-11T05:47:04;8.40;;;3.40;;
10884;SDS011;5495;53.252;10.390;2022-08-11T05:49:50;4.10;;;3.70;;
10884;SDS011;5495;53.252;10.390;2022-08-11T05:52:35;4.07;;;3.07;;
10884;SDS011;5495;53.252;10.390;2022-08-11T05:55:21;5.03;;;3.80;;
10884;SDS011;5495;53.252;10.390;2022-08-11T05:58:09;6.57;;;3.30;;
10884;SDS011;5495;53.252;10.390;2022-08-11T06:00:42;7.83;;;4.03;;
10884;SDS011;5495;53.252;10.390;2022-08-11T06:03:18;6.07;;;4.00;;
10884;SDS011;5495;53.252;10.390;2022-08-11T06:05:50;7.13;;;3.00;;
10884;SDS011;5495;53.252;10.390;2022-08-11T06:08:26;4.17;;;3.40;;
10884;SDS011;5495;53.252;10.390;2022-08-11T06:10:58;7.53;;;3.20;;
10884;SDS011;5495;53.252;10.390;2022-08-11T06:13:30;5.40;;;3.60;;
10884;SDS011;5495;53.252;10.390;2022-08-11T06:15:59;4.83;;;3.43;;
10884;SDS011;5495;53.252;10.390;2022-08-11T06:18:27;6.07;;;3.53;;
10884;SDS011;5495;53.252;10.390;2022-08-11T06:20:56;6.93;;;3.70;;
10884;SDS011;5495;53.252;10.390;2022-08-11T06:23:29;4.83;;;3.13;;
10884;SDS011;5495;53.252;10.390;2022-08-11T06:25:58;9.27;;;3.70;;
10884;SDS011;5495;53.252;10.390;2022-08-11T06:28:32;5.60;;;3.57;;
10884;SDS011;5495;53.252;10.390;2022-08-11T06:31:10;11.13;;;3.77;;
10884;SDS011;5495;53.252;10.390;2022-08-11T06:33:44;5.40;;;3.40;;
10884;SDS011;5495;53.252;10.390;2022-08-11T06:36:21;5.63;;;4.10;;
10884;SDS011;5495;53.252;10.390;2022-08-11T06:38:59;8.60;;;3.70;;
10884;SDS011;5495;53.252;10.390;2022-08-11T06:41:38;6.87;;;3.57;;
10884;SDS011;5495;53.252;10.390;2022-08-11T06:44:21;6.07;;;3.20;;
10884;SDS011;5495;53.252;10.390;2022-08-11T06:46:54;10.40;;;3.27;;
10884;SDS011;5495;53.252;10.390;2022-08-11T06:49:33;6.90;;;3.23;;
10884;SDS011;5495;53.252;10.390;2022-08-11T06:52:27;7.30;;;3.67;;
10884;SDS011;5495;53.252;10.390;2022-08-11T06:54:59;4.03;;;3.20;;
10884;SDS011;5495;53.252;10.390;2022-08-11T06:57:31;7.30;;;2.90;;
10884;SDS011;5495;53.252;10.390;2022-08-11T07:00:19;4.37;;;2.80;;
10884;SDS011;5495;53.252;10.390;2022-08-11T07:03:00;3.37;;;2.80;;
10884;SDS011;5495;53.252;10.390;2022-08-11T07:05:37;3.63;;;2.70;;
10884;SDS011;5495;53.252;10.390;2022-08-11T07:08:25;2.90;;;2.57;;
10884;SDS011;5495;53.252;10.390;2022-08-11T07:11:40;5.23;;;2.53;;
10884;SDS011;5495;53.252;10.390;2022-08-11T07:14:50;6.80;;;2.70;;
10884;SDS011;5495;53.252;10.390;2022-08-11T07:17:40;5.10;;;2.73;;
10884;SDS011;5495;53.252;10.390;2022-08-11T07:20:13;3.27;;;2.60;;
10884;SDS011;5495;53.252;10.390;2022-08-11T07:23:01;4.93;;;2.50;;
10884;SDS011;5495;53.252;10.390;2022-08-11T07:26:01;7.37;;;3.00;;
10884;SDS011;5495;53.252;10.390;2022-08-11T07:28:47;5.93;;;3.00;;
10884;SDS011;5495;53.252;10.390;2022-08-11T07:31:24;4.73;;;2.40;;
10884;SDS011;5495;53.252;10.390;2022-08-11T07:34:00;4.33;;;2.50;;
10884;SDS011;5495;53.252;10.390;2022-08-11T07:36:38;5.67;;;2.93;;
10884;SDS011;5495;53.252;10.390;2022-08-11T07:39:09;4.40;;;2.67;;
10884;SDS011;5495;53.252;10.390;2022-08-11T07:41:43;6.93;;;3.20;;
10884;SDS011;5495;53.252;10.390;2022-08-11T07:44:13;4.67;;;2.40;;
10884;SDS011;5495;53.252;10.390;2022-08-11T07:46:42;6.63;;;3.10;;
10884;SDS011;5495;53.252;10.390;2022-08-11T07:49:33;8.23;;;2.93;;
10884;SDS011;5495;53.252;10.390;2022-08-11T07:52:20;8.77;;;3.00;;
10884;SDS011;5495;53.252;10.390;2022-08-11T07:54:59;6.13;;;2.70;;
10884;SDS011;5495;53.252;10.390;2022-08-11T07:57:28;4.33;;;2.70;;
10884;SDS011;5495;53.252;10.390;2022-08-11T08:00:15;5.63;;;2.40;;
10884;SDS011;5495;53.252;10.390;2022-08-11T08:03:01;3.17;;;2.47;;
10884;SDS011;5495;53.252;10.390;2022-08-11T08:05:50;3.33;;;2.40;;
10884;SDS011;5495;53.252;10.390;2022-08-11T08:08:35;4.87;;;2.60;;
10884;SDS011;5495;53.252;10.390;2022-08-11T08:11:23;6.13;;;2.60;;
10884;SDS011;5495;53.252;10.390;2022-08-11T08:14:09;2.70;;;2.23;;
10884;SDS011;5495;53.252;10.390;2022-08-11T08:16:55;4.30;;;2.30;;
10884;SDS011;5495;53.252;10.390;2022-08-11T08:19:40;5.87;;;2.87;;
10884;SDS011;5495;53.252;10.390;2022-08-11T08:22:17;4.47;;;2.40;;
10884;SDS011;5495;53.252;10.390;2022-08-11T08:24:46;8.20;;;3.03;;
10884;SDS011;5495;53.252;10.390;2022-08-11T08:27:14;4.17;;;2.30;;
10884;SDS011;5495;53.252;10.390;2022-08-11T08:29:43;6.10;;;2.40;;
10884;SDS011;5495;53.252;10.390;2022-08-11T08:32:29;5.63;;;2.57;;
10884;SDS011;5495;53.252;10.390;2022-08-11T08:34:59;7.17;;;2.33;;
10884;SDS011;5495;53.252;10.390;2022-08-11T08:37:31;3.93;;;2.67;;
10884;SDS011;5495;53.252;10.390;2022-08-11T08:40:00;3.27;;;2.77;;
10884;SDS011;5495;53.252;10.390;2022-08-11T08:42:29;5.40;;;2.53;;
10884;SDS011;5495;53.252;10.390;2022-08-11T08:45:03;2.77;;;2.17;;
10884;SDS011;5495;53.252;10.390;2022-08-11T08:47:34;4.73;;;2.53;;
10884;SDS011;5495;53.252;10.390;2022-08-11T08:50:04;2.73;;;2.23;;
10884;SDS011;5495;53.252;10.390;2022-08-11T08:52:38;7.07;;;2.30;;
10884;SDS011;5495;53.252;10.390;2022-08-11T08:55:11;5.90;;;2.40;;
10884;SDS011;5495;53.252;10.390;2022-08-11T08:57:44;4.23;;;2.53;;
10884;SDS011;5495;53.252;10.390;2022-08-11T09:00:14;3.30;;;2.27;;
10884;SDS011;5495;53.252;10.390;2022-08-11T09:02:46;3.53;;;2.40;;
10884;SDS011;5495;53.252;10.390;2022-08-11T09:05:16;3.63;;;2.27;;
10884;SDS011;5495;53.252;10.390;2022-08-11T09:07:48;2.90;;;1.93;;
10884;SDS011;5495;53.252;10.390;2022-08-11T09:10:22;3.00;;;2.30;;
10884;SDS011;5495;53.252;10.390;2022-08-11T09:12:55;4.23;;;2.33;;
10884;SDS011;5495;53.252;10.390;2022-08-11T09:15:25;3.83;;;2.33;;
10884;SDS011;5495;53.252;10.390;2022-08-11T09:17:53;4.23;;;2.30;;
10884;SDS011;5495;53.252;10.390;2022-08-11T09:20:31;6.17;;;2.27;;
10884;SDS011;5495;53.252;10.390;2022-08-11T09:23:02;2.93;;;2.20;;
10884;SDS011;5495;53.252;10.390;2022-08-11T09:25:49;3.10;;;1.93;;
10884;SDS011;5495;53.252;10.390;2022-08-11T09:28:36;5.80;;;2.03;;
10884;SDS011;5495;53.252;10.390;2022-08-11T09:31:04;8.20;;;2.53;;
10884;SDS011;5495;53.252;10.390;2022-08-11T09:33:34;3.50;;;2.60;;
10884;SDS011;5495;53.252;10.390;2022-08-11T09:36:03;4.37;;;2.43;;
10884;SDS011;5495;53.252;10.390;2022-08-11T09:38:48;5.73;;;3.17;;
10884;SDS011;5495;53.252;10.390;2022-08-11T09:41:34;2.97;;;2.37;;
10884;SDS011;5495;53.252;10.390;2022-08-11T09:44:04;3.90;;;2.53;;
10884;SDS011;5495;53.252;10.390;2022-08-11T09:46:49;4.10;;;2.40;;
10884;SDS011;5495;53.252;10.390;2022-08-11T09:49:19;8.73;;;3.00;;
10884;SDS011;5495;53.252;10.390;2022-08-11T09:51:47;5.60;;;2.37;;
10884;SDS011;5495;53.252;10.390;2022-08-11T09:54:18;7.87;;;2.60;;
10884;SDS011;5495;53.252;10.390;2022-08-11T09:56:47;5.33;;;2.60;;
10884;SDS011;5495;53.252;10.390;2022-08-11T09:59:34;4.07;;;2.27;;
10884;SDS011;5495;53.252;10.390;2022-08-11T10:02:03;6.73;;;2.40;;
10884;SDS011;5495;53.252;10.390;2022-08-11T10:04:34;2.50;;;2.30;;
10884;SDS011;5495;53.252;10.390;2022-08-11T10:07:06;2.73;;;2.00;;
10884;SDS011;5495;53.252;10.390;2022-08-11T10:09:38;5.63;;;2.60;;
10884;SDS011;5495;53.252;10.390;2022-08-11T10:12:10;2.73;;;2.53;;
10884;SDS011;5495;53.252;10.390;2022-08-11T10:14:42;5.33;;;2.73;;
10884;SDS011;5495;53.252;10.390;2022-08-11T10:17:29;7.00;;;2.63;;
10884;SDS011;5495;53.252;10.390;2022-08-11T10:20:00;3.03;;;2.17;;
10884;SDS011;5495;53.252;10.390;2022-08-11T10:22:33;2.73;;;2.23;;
10884;SDS011;5495;53.252;10.390;2022-08-11T10:25:20;4.30;;;2.60;;
10884;SDS011;5495;53.252;10.390;2022-08-11T10:28:07;5.03;;;2.30;;
10884;SDS011;5495;53.252;10.390;2022-08-11T10:30:35;5.77;;;2.50;;
10884;SDS011;5495;53.252;10.390;2022-08-11T10:33:21;4.67;;;2.30;;
10884;SDS011;5495;53.252;10.390;2022-08-11T10:36:07;5.63;;;2.73;;
10884;SDS011;5495;53.252;10.390;2022-08-11T10:38:35;7.77;;;2.20;;
10884;SDS011;5495;53.252;10.390;2022-08-11T10:41:04;2.50;;;1.97;;
10884;SDS011;5495;53.252;10.390;2022-08-11T10:43:50;3.40;;;1.90;;
10884;SDS011;5495;53.252;10.390;2022-08-11T10:46:21;3.00;;;2.47;;
10884;SDS011;5495;53.252;10.390;2022-08-11T10:49:08;5.10;;;2.40;;
10884;SDS011;5495;53.252;10.390;2022-08-11T10:51:36;2.60;;;2.10;;
10884;SDS011;5495;53.252;10.390;2022-08-11T10:54:21;3.53;;;2.13;;
10884;SDS011;5495;53.252;10.390;2022-08-11T10:57:09;6.40;;;2.40;;
10884;SDS011;5495;53.252;10.390;2022-08-11T10:59:58;4.07;;;2.10;;
10884;SDS011;5495;53.252;10.390;2022-08-11T11:02:31;3.60;;;2.20;;
10884;SDS011;5495;53.252;10.390;2022-08-11T11:05:03;4.43;;;2.40;;
10884;SDS011;5495;53.252;10.390;2022-08-11T11:07:46;4.57;;;2.20;;
10884;SDS011;5495;53.252;10.390;2022-08-11T11:10:21;2.73;;;1.90;;
10884;SDS011;5495;53.252;10.390;2022-08-11T11:12:52;3.70;;;2.23;;
10884;SDS011;5495;53.252;10.390;2022-08-11T11:15:40;5.53;;;2.10;;
10884;SDS011;5495;53.252;10.390;2022-08-11T11:18:30;3.87;;;1.97;;
10884;SDS011;5495;53.252;10.390;2022-08-11T11:21:04;3.17;;;2.17;;
10884;SDS011;5495;53.252;10.390;2022-08-11T11:23:37;2.70;;;1.70;;
10884;SDS011;5495;53.252;10.390;2022-08-11T11:32:13;2.70;;;2.10;;
10884;SDS011;5495;53.252;10.390;2022-08-11T11:37:44;5.00;;;2.10;;
10884;SDS011;5495;53.252;10.390;2022-08-11T11:40:15;5.77;;;2.07;;
10884;SDS011;5495;53.252;10.390;2022-08-11T11:42:46;6.30;;;2.13;;
10884;SDS011;5495;53.252;10.390;2022-08-11T11:45:17;2.73;;;2.00;;
10884;SDS011;5495;53.252;10.390;2022-08-11T11:47:49;2.87;;;2.07;;
10884;SDS011;5495;53.252;10.390;2022-08-11T11:50:23;11.00;;;2.40;;
10884;SDS011;5495;53.252;10.390;2022-08-11T11:52:52;3.80;;;2.47;;
10884;SDS011;5495;53.252;10.390;2022-08-11T11:55:21;4.83;;;2.37;;
10884;SDS011;5495;53.252;10.390;2022-08-11T11:57:51;3.07;;;2.10;;
10884;SDS011;5495;53.252;10.390;2022-08-11T12:00:40;4.37;;;2.07;;
10884;SDS011;5495;53.252;10.390;2022-08-11T12:03:26;2.90;;;2.00;;
10884;SDS011;5495;53.252;10.390;2022-08-11T12:05:55;3.87;;;2.17;;
10884;SDS011;5495;53.252;10.390;2022-08-11T12:08:24;3.73;;;2.33;;
10884;SDS011;5495;53.252;10.390;2022-08-11T12:10:54;2.00;;;1.80;;
10884;SDS011;5495;53.252;10.390;2022-08-11T12:13:37;6.17;;;2.93;;
10884;SDS011;5495;53.252;10.390;2022-08-11T12:16:08;2.03;;;1.87;;
10884;SDS011;5495;53.252;10.390;2022-08-11T12:18:38;2.10;;;1.90;;
10884;SDS011;5495;53.252;10.390;2022-08-11T12:21:07;5.73;;;2.00;;
10884;SDS011;5495;53.252;10.390;2022-08-11T12:23:36;3.53;;;2.00;;
10884;SDS011;5495;53.252;10.390;2022-08-11T12:26:22;4.07;;;2.17;;
10884;SDS011;5495;53.252;10.390;2022-08-11T12:29:09;2.17;;;1.87;;
10884;SDS011;5495;53.252;10.390;2022-08-11T12:31:39;2.07;;;1.80;;
10884;SDS011;5495;53.252;10.390;2022-08-11T12:34:07;3.87;;;1.80;;
10884;SDS011;5495;53.252;10.390;2022-08-11T12:36:38;1.50;;;1.40;;
10884;SDS011;5495;53.252;10.390;2022-08-11T12:39:09;2.23;;;1.77;;
10884;SDS011;5495;53.252;10.390;2022-08-11T12:41:41;1.70;;;1.50;;
10884;SDS011;5495;53.252;10.390;2022-08-11T12:44:27;3.67;;;1.80;;
10884;SDS011;5495;53.252;10.390;2022-08-11T12:47:15;2.67;;;1.80;;
10884;SDS011;5495;53.252;10.390;2022-08-11T12:49:46;2.63;;;1.50;;
10884;SDS011;5495;53.252;10.390;2022-08-11T12:52:41;6.33;;;1.60;;
10884;SDS011;5495;53.252;10.390;2022-08-11T12:55:15;3.27;;;1.60;;
10884;SDS011;5495;53.252;10.390;2022-08-11T12:58:07;3.60;;;2.10;;
10884;SDS011;5495;53.252;10.390;2022-08-11T13:00:42;4.20;;;1.93;;
10884;SDS011;5495;53.252;10.390;2022-08-11T13:03:30;3.30;;;1.70;;
10884;SDS011;5495;53.252;10.390;2022-08-11T13:06:17;2.43;;;2.03;;
10884;SDS011;5495;53.252;10.390;2022-08-11T13:08:49;2.60;;;2.10;;
10884;SDS011;5495;53.252;10.390;2022-08-11T13:11:17;7.23;;;1.73;;
10884;SDS011;5495;53.252;10.390;2022-08-11T13:14:03;2.00;;;1.77;;
10884;SDS011;5495;53.252;10.390;2022-08-11T13:16:31;2.57;;;1.60;;
10884;SDS011;5495;53.252;10.390;2022-08-11T13:19:23;2.70;;;1.60;;
10884;SDS011;5495;53.252;10.390;2022-08-11T13:21:52;6.07;;;1.57;;
10884;SDS011;5495;53.252;10.390;2022-08-11T13:24:20;3.10;;;1.80;;
10884;SDS011;5495;53.252;10.390;2022-08-11T13:26:49;2.90;;;1.57;;
10884;SDS011;5495;53.252;10.390;2022-08-11T13:29:17;2.67;;;1.63;;
10884;SDS011;5495;53.252;10.390;2022-08-11T13:31:47;2.20;;;1.90;;
10884;SDS011;5495;53.252;10.390;2022-08-11T13:34:16;4.77;;;1.40;;
10884;SDS011;5495;53.252;10.390;2022-08-11T13:36:45;1.77;;;1.50;;
10884;SDS011;5495;53.252;10.390;2022-08-11T13:39:16;4.30;;;1.50;;
10884;SDS011;5495;53.252;10.390;2022-08-11T13:41:44;3.33;;;1.40;;
10884;SDS011;5495;53.252;10.390;2022-08-11T13:44:15;2.10;;;1.50;;
10884;SDS011;5495;53.252;10.390;2022-08-11T13:46:44;4.43;;;1.60;;
10884;SDS011;5495;53.252;10.390;2022-08-11T13:49:13;3.73;;;1.63;;
10884;SDS011;5495;53.252;10.390;2022-08-11T13:51:42;3.60;;;1.47;;
10884;SDS011;5495;53.252;10.390;2022-08-11T13:54:14;3.10;;;1.50;;
10884;SDS011;5495;53.252;10.390;2022-08-11T13:56:45;1.97;;;1.40;;
10884;SDS011;5495;53.252;10.390;2022-08-11T13:59:17;3.20;;;1.60;;
10884;SDS011;5495;53.252;10.390;2022-08-11T14:01:47;5.87;;;1.73;;
10884;SDS011;5495;53.252;10.390;2022-08-11T14:04:19;1.53;;;1.43;;
10884;SDS011;5495;53.252;10.390;2022-08-11T14:06:52;2.80;;;1.60;;
10884;SDS011;5495;53.252;10.390;2022-08-11T14:09:27;2.93;;;1.60;;
10884;SDS011;5495;53.252;10.390;2022-08-11T14:11:59;2.60;;;1.50;;
10884;SDS011;5495;53.252;10.390;2022-08-11T14:14:48;2.93;;;1.30;;
10884;SDS011;5495;53.252;10.390;2022-08-11T14:17:25;2.47;;;1.57;;
10884;SDS011;5495;53.252;10.390;2022-08-11T14:19:57;1.60;;;1.50;;
10884;SDS011;5495;53.252;10.390;2022-08-11T14:22:29;1.43;;;1.33;;
10884;SDS011;5495;53.252;10.390;2022-08-11T14:24:58;3.27;;;1.60;;
10884;SDS011;5495;53.252;10.390;2022-08-11T14:27:26;2.07;;;1.40;;
10884;SDS011;5495;53.252;10.390;2022-08-11T14:29:55;3.73;;;1.50;;
10884;SDS011;5495;53.252;10.390;2022-08-11T14:32:24;1.40;;;1.17;;
10884;SDS011;5495;53.252;10.390;2022-08-11T14:34:52;3.20;;;1.33;;
10884;SDS011;5495;53.252;10.390;2022-08-11T14:37:20;3.63;;;1.50;;
10884;SDS011;5495;53.252;10.390;2022-08-11T14:39:50;3.07;;;1.50;;
10884;SDS011;5495;53.252;10.390;2022-08-11T14:42:21;3.80;;;1.50;;
10884;SDS011;5495;53.252;10.390;2022-08-11T14:45:08;2.03;;;1.50;;
10884;SDS011;5495;53.252;10.390;2022-08-11T14:48:01;1.33;;;1.20;;
10884;SDS011;5495;53.252;10.390;2022-08-11T14:50:34;1.80;;;1.27;;
10884;SDS011;5495;53.252;10.390;2022-08-11T14:53:02;11.07;;;2.63;;
10884;SDS011;5495;53.252;10.390;2022-08-11T14:55:35;3.77;;;1.20;;
10884;SDS011;5495;53.252;10.390;2022-08-11T14:58:24;2.17;;;1.50;;
10884;SDS011;5495;53.252;10.390;2022-08-11T15:00:54;1.40;;;1.13;;
10884;SDS011;5495;53.252;10.390;2022-08-11T15:03:23;2.33;;;1.17;;
10884;SDS011;5495;53.252;10.390;2022-08-11T15:05:52;2.67;;;1.20;;
10884;SDS011;5495;53.252;10.390;2022-08-11T15:08:22;4.07;;;1.30;;
10884;SDS011;5495;53.252;10.390;2022-08-11T15:11:09;2.83;;;1.20;;
10884;SDS011;5495;53.252;10.390;2022-08-11T15:13:54;4.63;;;1.53;;
10884;SDS011;5495;53.252;10.390;2022-08-11T15:16:24;3.23;;;1.20;;
10884;SDS011;5495;53.252;10.390;2022-08-11T15:19:10;1.87;;;1.10;;
10884;SDS011;5495;53.252;10.390;2022-08-11T15:21:40;2.07;;;1.20;;
10884;SDS011;5495;53.252;10.390;2022-08-11T15:24:25;2.53;;;1.30;;
10884;SDS011;5495;53.252;10.390;2022-08-11T15:26:53;4.20;;;1.50;;
10884;SDS011;5495;53.252;10.390;2022-08-11T15:29:41;4.27;;;1.43;;
10884;SDS011;5495;53.252;10.390;2022-08-11T15:32:30;3.30;;;1.43;;
10884;SDS011;5495;53.252;10.390;2022-08-11T15:35:17;2.10;;;1.03;;
10884;SDS011;5495;53.252;10.390;2022-08-11T15:38:03;2.40;;;1.40;;
10884;SDS011;5495;53.252;10.390;2022-08-11T15:40:36;4.03;;;1.20;;
10884;SDS011;5495;53.252;10.390;2022-08-11T15:43:24;3.90;;;1.37;;
10884;SDS011;5495;53.252;10.390;2022-08-11T15:46:10;2.63;;;1.10;;
10884;SDS011;5495;53.252;10.390;2022-08-11T15:48:42;2.73;;;1.20;;
10884;SDS011;5495;53.252;10.390;2022-08-11T15:51:16;2.90;;;1.30;;
10884;SDS011;5495;53.252;10.390;2022-08-11T15:53:49;4.27;;;1.50;;
10884;SDS011;5495;53.252;10.390;2022-08-11T15:56:19;4.87;;;1.30;;
10884;SDS011;5495;53.252;10.390;2022-08-11T15:58:50;3.10;;;1.40;;
10884;SDS011;5495;53.252;10.390;2022-08-11T16:01:38;4.50;;;1.30;;
10884;SDS011;5495;53.252;10.390;2022-08-11T16:04:26;2.73;;;1.40;;
10884;SDS011;5495;53.252;10.390;2022-08-11T16:06:57;1.53;;;1.30;;
10884;SDS011;5495;53.252;10.390;2022-08-11T16:09:30;3.07;;;1.30;;
10884;SDS011;5495;53.252;10.390;2022-08-11T16:12:01;3.97;;;1.70;;
10884;SDS011;5495;53.252;10.390;2022-08-11T16:14:32;2.93;;;1.37;;
10884;SDS011;5495;53.252;10.390;2022-08-11T16:17:20;1.80;;;1.20;;
10884;SDS011;5495;53.252;10.390;2022-08-11T16:19:52;3.87;;;1.40;;
10884;SDS011;5495;53.252;10.390;2022-08-11T16:22:23;2.40;;;1.30;;
10884;SDS011;5495;53.252;10.390;2022-08-11T16:24:55;2.93;;;1.50;;
10884;SDS011;5495;53.252;10.390;2022-08-11T16:27:24;3.67;;;1.40;;
10884;SDS011;5495;53.252;10.390;2022-08-11T16:29:53;3.37;;;1.23;;
10884;SDS011;5495;53.252;10.390;2022-08-11T16:32:24;2.03;;;1.30;;
10884;SDS011;5495;53.252;10.390;2022-08-11T16:34:54;3.57;;;1.50;;
10884;SDS011;5495;53.252;10.390;2022-08-11T16:37:42;2.20;;;1.70;;
10884;SDS011;5495;53.252;10.390;2022-08-11T16:40:27;3.57;;;1.30;;
10884;SDS011;5495;53.252;10.390;2022-08-11T16:42:57;2.40;;;1.30;;
10884;SDS011;5495;53.252;10.390;2022-08-11T16:45:42;1.90;;;1.23;;
10884;SDS011;5495;53.252;10.390;2022-08-11T16:48:31;3.30;;;1.23;;
10884;SDS011;5495;53.252;10.390;2022-08-11T16:51:02;5.10;;;1.30;;
10884;SDS011;5495;53.252;10.390;2022-08-11T16:53:30;2.60;;;1.40;;
10884;SDS011;5495;53.252;10.390;2022-08-11T16:55:59;6.83;;;1.60;;
10884;SDS011;5495;53.252;10.390;2022-08-11T16:58:34;1.50;;;1.40;;
10884;SDS011;5495;53.252;10.390;2022-08-11T17:01:20;2.83;;;1.27;;
10884;SDS011;5495;53.252;10.390;2022-08-11T17:03:55;9.03;;;1.43;;
10884;SDS011;5495;53.252;10.390;2022-08-11T17:06:44;3.17;;;1.50;;
10884;SDS011;5495;53.252;10.390;2022-08-11T17:09:31;2.40;;;1.53;;
10884;SDS011;5495;53.252;10.390;2022-08-11T17:12:19;3.07;;;1.30;;
10884;SDS011;5495;53.252;10.390;2022-08-11T17:15:10;3.40;;;1.10;;
10884;SDS011;5495;53.252;10.390;2022-08-11T17:17:59;3.70;;;1.50;;